Time;durP1;ratioP1;P1;durP2;ratioP2;P2;SDS_P1;SDS_P2;PMS_P1;PMS_P2;Temp;Humidity;BMP_temperature;BMP_pressure;BME280_temperature;BME280_humidity;BME280_pressure;Samples;Min_cycle;Max_cycle;Signal;HPM_P1;HPM_P2
2022/09/06 00:01:11;;;;;;;4.78;2.35;;;18.90;99.90;;;;;;5053159;28;20202;-57
2022/09/06 00:03:38;;;;;;;2.90;2.28;;;18.90;99.90;;;;;;5052877;28;20210;-58
2022/09/06 00:06:10;;;;;;;3.25;1.90;;;18.90;99.90;;;;;;5053012;28;20247;-56
2022/09/06 00:08:37;;;;;;;2.22;2.03;;;18.80;99.90;;;;;;5052634;28;20230;-57
2022/09/06 00:11:03;;;;;;;3.30;2.20;;;18.70;99.90;;;;;;5052695;28;20221;-58
2022/09/06 00:13:32;;;;;;;3.65;1.95;;;18.70;99.90;;;;;;5052963;28;20210;-57
2022/09/06 00:16:06;;;;;;;3.10;2.25;;;18.60;99.90;;;;;;5052911;28;20216;-57
2022/09/06 00:18:32;;;;;;;4.78;2.13;;;18.40;99.90;;;;;;5052473;28;20229;-57
2022/09/06 00:20:59;;;;;;;2.78;2.15;;;18.30;99.90;;;;;;5052556;28;20210;-56
2022/09/06 00:23:26;;;;;;;3.67;2.15;;;18.10;99.90;;;;;;5052935;28;20263;-66
2022/09/06 00:25:52;;;;;;;4.07;2.40;;;18.00;99.90;;;;;;5052534;28;20210;-64
2022/09/06 00:28:19;;;;;;;3.55;2.20;;;17.90;99.90;;;;;;5052696;28;20212;-58
2022/09/06 00:30:47;;;;;;;3.35;2.53;;;17.90;99.90;;;;;;5051588;28;20263;-58
2022/09/06 00:33:14;;;;;;;2.60;2.20;;;18.00;99.90;;;;;;5052567;28;20209;-59
2022/09/06 00:35:40;;;;;;;3.13;2.42;;;18.00;99.90;;;;;;5052342;28;20209;-59
2022/09/06 00:38:07;;;;;;;2.53;2.10;;;18.10;99.90;;;;;;5052230;28;20209;-58
2022/09/06 00:40:35;;;;;;;2.58;2.10;;;18.10;99.90;;;;;;5052249;28;20255;-58
2022/09/06 00:43:01;;;;;;;2.80;1.92;;;18.00;99.90;;;;;;5052534;28;20296;-63
2022/09/06 00:45:29;;;;;;;3.00;1.98;;;18.00;99.90;;;;;;5052376;28;20205;-57
2022/09/06 00:47:59;;;;;;;2.63;2.42;;;18.00;99.90;;;;;;5052319;28;20600;-57
2022/09/06 00:50:26;;;;;;;3.03;2.20;;;18.00;99.90;;;;;;5051911;28;20299;-56
2022/09/06 00:52:53;;;;;;;3.80;2.22;;;18.00;99.90;;;;;;5052077;28;20213;-57
2022/09/06 00:55:21;;;;;;;6.45;2.40;;;18.10;99.90;;;;;;5052131;28;20259;-56
2022/09/06 00:57:50;;;;;;;6.97;2.42;;;18.20;99.90;;;;;;5052247;28;20210;-57
2022/09/06 01:00:19;;;;;;;2.35;1.92;;;18.20;99.90;;;;;;5051775;28;20268;-57
2022/09/06 01:02:45;;;;;;;3.38;2.20;;;18.20;99.90;;;;;;5052183;28;20205;-57
2022/09/06 01:05:14;;;;;;;3.70;2.35;;;18.20;99.90;;;;;;5051979;28;20205;-57
2022/09/06 01:08:02;;;;;;;3.65;2.15;;;18.30;99.90;;;;;;5052165;28;20213;-57
2022/09/06 01:10:43;;;;;;;3.53;2.70;;;18.30;99.90;;;;;;5051647;28;20234;-56
2022/09/06 01:13:20;;;;;;;4.20;2.47;;;18.40;99.90;;;;;;5052306;28;20209;-56
2022/09/06 01:15:56;;;;;;;3.03;2.20;;;18.40;99.90;;;;;;5051656;28;20565;-58
2022/09/06 01:18:35;;;;;;;2.80;2.17;;;18.40;99.90;;;;;;5051993;28;20266;-58
2022/09/06 01:21:13;;;;;;;2.15;1.90;;;18.30;99.90;;;;;;5051710;28;20598;-57
2022/09/06 01:24:05;;;;;;;3.97;2.20;;;18.30;99.90;;;;;;5051774;28;20738;-57
2022/09/06 01:27:18;;;;;;;2.90;2.63;;;18.20;99.90;;;;;;5052066;28;20264;-57
2022/09/06 01:29:50;;;;;;;3.60;2.40;;;18.00;99.90;;;;;;5047013;28;20229;-56
2022/09/06 01:32:23;;;;;;;3.97;2.38;;;18.00;99.90;;;;;;5051730;28;20221;-57
2022/09/06 01:34:54;;;;;;;2.83;2.53;;;18.00;99.90;;;;;;5051847;28;20209;-56
2022/09/06 01:37:23;;;;;;;2.72;2.25;;;18.10;99.90;;;;;;5051772;28;20213;-57
2022/09/06 01:39:50;;;;;;;4.20;2.90;;;18.20;99.90;;;;;;5051491;28;20232;-58
2022/09/06 01:42:20;;;;;;;4.30;2.92;;;18.20;99.90;;;;;;5053711;28;20251;-57
2022/09/06 01:44:52;;;;;;;3.65;2.42;;;18.30;99.90;;;;;;5055436;28;20213;-57
2022/09/06 01:47:29;;;;;;;3.20;2.72;;;18.20;99.90;;;;;;5056469;28;20205;-57
2022/09/06 01:50:12;;;;;;;3.45;2.92;;;18.20;99.90;;;;;;5055823;28;20225;-57
2022/09/06 01:52:46;;;;;;;7.93;2.78;;;18.10;99.90;;;;;;5055737;28;20213;-57
2022/09/06 01:55:22;;;;;;;3.13;2.47;;;18.10;99.90;;;;;;5055472;28;20267;-58
2022/09/06 01:58:03;;;;;;;6.38;2.42;;;18.10;99.90;;;;;;5055506;28;20266;-57
2022/09/06 02:00:38;;;;;;;2.92;2.25;;;18.10;99.90;;;;;;5055135;28;20299;-56
2022/09/06 02:03:13;;;;;;;2.53;2.30;;;18.20;99.90;;;;;;5055298;28;20205;-56
2022/09/06 02:05:44;;;;;;;3.20;2.30;;;18.30;99.90;;;;;;5055176;28;20224;-58
2022/09/06 02:08:14;;;;;;;3.00;1.95;;;18.50;99.90;;;;;;5055367;28;20209;-58
2022/09/06 02:10:45;;;;;;;3.15;2.38;;;18.60;99.90;;;;;;5054812;28;20226;-57
2022/09/06 02:13:14;;;;;;;3.45;2.20;;;18.70;99.90;;;;;;5055151;28;20209;-58
2022/09/06 02:15:49;;;;;;;3.30;2.30;;;18.70;99.90;;;;;;5055165;28;20263;-56
2022/09/06 02:18:18;;;;;;;4.90;2.13;;;18.70;99.90;;;;;;5054856;28;20205;-57
2022/09/06 02:20:50;;;;;;;2.75;2.50;;;18.80;99.90;;;;;;5054578;28;20673;-56
2022/09/06 02:23:18;;;;;;;2.97;2.15;;;18.80;99.90;;;;;;5055005;28;20209;-56
2022/09/06 02:25:51;;;;;;;3.03;2.72;;;18.80;99.90;;;;;;5054873;28;20229;-57
2022/09/06 02:28:18;;;;;;;4.68;2.67;;;18.80;99.90;;;;;;5054780;28;20202;-57
2022/09/06 02:30:50;;;;;;;2.65;2.38;;;18.80;99.90;;;;;;5054534;28;20226;-58
2022/09/06 02:33:20;;;;;;;4.10;2.60;;;18.80;99.90;;;;;;5054974;28;20209;-57
2022/09/06 02:35:49;;;;;;;4.90;2.95;;;18.80;99.90;;;;;;5054965;28;20665;-57
2022/09/06 02:38:17;;;;;;;4.93;3.17;;;18.80;99.90;;;;;;5054962;28;20616;-58
2022/09/06 02:40:45;;;;;;;4.78;2.88;;;18.90;99.90;;;;;;5054752;28;20297;-58
2022/09/06 02:43:12;;;;;;;3.78;3.10;;;19.00;99.90;;;;;;5054793;28;20264;-58
2022/09/06 02:45:39;;;;;;;4.07;3.20;;;19.00;99.90;;;;;;5055238;28;20259;-57
2022/09/06 02:48:07;;;;;;;5.63;2.78;;;19.10;99.90;;;;;;5054855;28;20238;-58
2022/09/06 02:50:34;;;;;;;5.25;3.25;;;19.00;99.90;;;;;;5054138;28;20209;-57
2022/09/06 02:53:03;;;;;;;4.53;2.65;;;19.10;99.90;;;;;;5053735;28;20205;-57
2022/09/06 02:55:29;;;;;;;5.32;3.40;;;19.20;99.90;;;;;;5054493;28;20209;-58
2022/09/06 02:57:57;;;;;;;6.88;3.20;;;19.10;99.90;;;;;;5054055;28;20673;-57
2022/09/06 03:00:24;;;;;;;3.17;2.63;;;19.20;99.90;;;;;;5054186;28;20228;-57
2022/09/06 03:02:50;;;;;;;7.57;3.55;;;19.20;99.90;;;;;;5054054;28;20198;-57
2022/09/06 03:05:18;;;;;;;7.13;3.20;;;19.30;99.90;;;;;;5054125;28;20619;-57
2022/09/06 03:07:45;;;;;;;3.95;2.83;;;19.30;99.90;;;;;;5054250;28;20228;-57
2022/09/06 03:10:12;;;;;;;6.28;3.10;;;19.40;99.90;;;;;;5054006;28;20263;-58
2022/09/06 03:12:38;;;;;;;6.53;5.20;;;19.50;99.90;;;;;;5054233;28;20225;-58
2022/09/06 03:15:06;;;;;;;7.28;4.47;;;19.60;99.90;;;;;;5053939;28;20623;-57
2022/09/06 03:17:33;;;;;;;6.75;4.30;;;19.70;99.90;;;;;;5053917;28;20240;-58
2022/09/06 03:19:59;;;;;;;5.72;3.70;;;19.70;99.90;;;;;;5053326;28;20234;-57
2022/09/06 03:22:27;;;;;;;6.97;4.32;;;19.60;99.90;;;;;;5053687;28;20248;-57
2022/09/06 03:24:54;;;;;;;7.72;4.90;;;19.40;99.90;;;;;;5053512;28;20209;-58
2022/09/06 03:27:21;;;;;;;11.52;4.90;;;19.30;99.90;;;;;;5053721;28;20209;-58
2022/09/06 03:29:47;;;;;;;4.60;3.45;;;19.40;99.90;;;;;;5053452;28;20221;-58
2022/09/06 03:32:14;;;;;;;9.77;4.00;;;19.30;99.90;;;;;;5053695;28;20279;-57
2022/09/06 03:34:41;;;;;;;8.98;4.55;;;19.30;99.90;;;;;;5053642;28;20255;-57
2022/09/06 03:37:07;;;;;;;7.53;4.38;;;19.40;99.90;;;;;;5053447;28;20209;-58
2022/09/06 03:39:35;;;;;;;8.05;4.30;;;19.40;99.90;;;;;;5053259;28;20230;-57
2022/09/06 03:42:02;;;;;;;6.43;3.67;;;19.40;99.90;;;;;;5053556;28;20258;-57
2022/09/06 03:44:28;;;;;;;6.38;3.95;;;19.40;99.90;;;;;;5053518;28;20209;-58
2022/09/06 03:46:55;;;;;;;5.20;4.35;;;19.10;99.90;;;;;;5053374;28;20209;-57
2022/09/06 03:49:22;;;;;;;9.07;4.32;;;19.10;99.90;;;;;;5052942;28;20222;-57
2022/09/06 03:51:48;;;;;;;6.53;4.50;;;19.20;99.90;;;;;;5053184;28;20501;-56
2022/09/06 03:54:15;;;;;;;4.18;3.60;;;19.20;99.90;;;;;;5053158;28;20287;-57
2022/09/06 03:56:43;;;;;;;4.13;3.60;;;19.30;99.90;;;;;;5053235;28;20236;-57
2022/09/06 03:59:10;;;;;;;5.32;3.95;;;19.40;99.90;;;;;;5052883;28;20229;-57
2022/09/06 04:01:36;;;;;;;5.32;4.45;;;19.40;99.90;;;;;;5053155;28;20202;-57
2022/09/06 04:04:03;;;;;;;6.50;4.35;;;19.50;99.90;;;;;;5053117;28;20205;-58
2022/09/06 04:06:30;;;;;;;5.35;4.20;;;19.60;99.90;;;;;;5051888;28;20584;-57
2022/09/06 04:08:56;;;;;;;7.60;4.63;;;19.60;99.90;;;;;;5053019;28;20225;-57
2022/09/06 04:11:23;;;;;;;7.18;5.57;;;19.70;99.90;;;;;;5053020;28;20222;-57
2022/09/06 04:13:51;;;;;;;6.03;4.63;;;19.70;99.90;;;;;;5052826;28;20213;-56
2022/09/06 04:16:18;;;;;;;8.60;5.65;;;19.80;99.90;;;;;;5052933;28;20209;-57
2022/09/06 04:18:44;;;;;;;5.88;5.28;;;19.90;99.90;;;;;;5080283;22;20225;-62
2022/09/06 04:21:11;;;;;;;5.65;4.60;;;19.80;99.90;;;;;;5072006;28;20411;-64
2022/09/06 04:23:38;;;;;;;5.38;4.72;;;19.80;99.90;;;;;;5072558;28;20213;-61
2022/09/06 04:26:05;;;;;;;5.72;4.30;;;19.80;99.90;;;;;;5072248;28;20725;-62
2022/09/06 04:28:31;;;;;;;6.28;4.57;;;19.70;99.90;;;;;;5072341;28;20212;-61
2022/09/06 04:31:01;;;;;;;4.35;3.95;;;19.70;99.90;;;;;;5072165;28;20205;-61
2022/09/06 04:33:29;;;;;;;5.50;4.20;;;19.70;99.90;;;;;;5072246;28;20205;-62
2022/09/06 04:35:58;;;;;;;5.40;4.10;;;19.70;99.90;;;;;;5072017;28;20225;-62
2022/09/06 04:38:25;;;;;;;5.53;4.25;;;19.80;99.90;;;;;;5072248;28;20209;-62
2022/09/06 04:40:52;;;;;;;5.32;4.53;;;19.80;99.90;;;;;;5071984;28;20209;-62
2022/09/06 04:43:19;;;;;;;6.30;4.90;;;19.70;99.90;;;;;;5072124;28;20211;-62
2022/09/06 04:45:45;;;;;;;5.40;4.75;;;19.50;99.90;;;;;;5072044;28;20197;-62
2022/09/06 04:48:14;;;;;;;5.03;4.38;;;19.40;99.90;;;;;;5071761;28;20209;-62
2022/09/06 04:50:41;;;;;;;8.50;5.03;;;19.30;99.90;;;;;;5071824;28;20229;-62
2022/09/06 04:53:09;;;;;;;7.13;5.07;;;19.40;99.90;;;;;;5072042;28;20225;-62
2022/09/06 04:55:37;;;;;;;5.68;4.60;;;19.40;99.90;;;;;;5072026;28;20209;-62
2022/09/06 04:58:04;;;;;;;6.70;4.60;;;19.40;99.90;;;;;;5071656;28;20205;-62
2022/09/06 05:00:32;;;;;;;5.80;4.45;;;19.30;99.90;;;;;;5071470;28;20232;-62
2022/09/06 05:02:59;;;;;;;4.82;4.32;;;19.30;99.90;;;;;;5071675;28;20683;-62
2022/09/06 05:05:27;;;;;;;4.78;4.25;;;19.20;99.90;;;;;;5072128;28;20209;-63
2022/09/06 05:07:55;;;;;;;4.85;3.55;;;19.20;99.90;;;;;;5071972;28;20204;-62
2022/09/06 05:10:23;;;;;;;6.05;3.95;;;19.20;99.90;;;;;;5071429;28;20605;-62
2022/09/06 05:12:50;;;;;;;5.30;3.67;;;19.20;99.90;;;;;;5071611;28;20600;-62
2022/09/06 05:15:17;;;;;;;5.82;4.00;;;19.20;99.90;;;;;;5071743;28;20266;-62
2022/09/06 05:17:43;;;;;;;4.35;3.92;;;19.30;99.90;;;;;;5071142;28;20216;-62
2022/09/06 05:20:11;;;;;;;5.90;5.10;;;19.40;99.90;;;;;;5071224;28;20233;-63
2022/09/06 05:22:40;;;;;;;4.72;3.83;;;19.40;99.90;;;;;;5071811;28;20255;-63
2022/09/06 05:25:07;;;;;;;4.35;3.65;;;19.50;99.90;;;;;;5071908;28;20208;-63
2022/09/06 05:27:34;;;;;;;8.68;4.38;;;19.50;99.90;;;;;;5072016;28;20258;-63
2022/09/06 05:30:02;;;;;;;6.40;3.90;;;19.70;99.90;;;;;;5071426;28;20235;-63
2022/09/06 05:32:29;;;;;;;6.40;3.70;;;19.70;99.90;;;;;;5071765;28;20316;-64
2022/09/06 05:34:55;;;;;;;7.75;3.92;;;19.80;99.90;;;;;;5072087;28;20259;-63
2022/09/06 05:37:22;;;;;;;5.85;3.88;;;19.90;99.90;;;;;;5071764;28;20638;-63
2022/09/06 05:39:50;;;;;;;8.90;3.85;;;20.00;99.90;;;;;;5071345;28;20588;-63
2022/09/06 05:42:17;;;;;;;7.05;3.60;;;20.10;99.90;;;;;;5071548;28;20220;-63
2022/09/06 05:44:44;;;;;;;5.97;3.97;;;20.20;99.90;;;;;;5071264;28;20208;-64
2022/09/06 05:47:10;;;;;;;4.68;3.72;;;20.30;99.90;;;;;;5071735;28;20204;-63
2022/09/06 05:49:37;;;;;;;6.07;3.70;;;20.50;99.90;;;;;;5071372;28;20229;-63
2022/09/06 05:52:04;;;;;;;3.45;3.10;;;20.60;99.90;;;;;;5071523;28;20224;-63
2022/09/06 05:54:30;;;;;;;5.53;3.53;;;20.90;99.90;;;;;;5071478;28;20270;-63
2022/09/06 05:56:58;;;;;;;5.43;3.80;;;21.10;99.90;;;;;;5071102;28;20205;-63
2022/09/06 05:59:25;;;;;;;7.97;3.90;;;21.20;99.90;;;;;;5071193;28;20286;-63
2022/09/06 06:01:53;;;;;;;6.75;3.55;;;21.30;99.90;;;;;;5071436;28;20216;-63
2022/09/06 06:04:21;;;;;;;5.10;3.42;;;21.40;99.90;;;;;;5071324;28;20232;-63
2022/09/06 06:06:48;;;;;;;4.63;3.80;;;21.40;99.90;;;;;;5071152;28;20673;-64
2022/09/06 06:09:16;;;;;;;6.15;3.95;;;21.40;99.90;;;;;;5071028;28;20229;-63
2022/09/06 06:11:43;;;;;;;5.07;3.78;;;21.50;99.90;;;;;;5071106;28;20209;-63
2022/09/06 06:14:11;;;;;;;6.38;3.80;;;21.50;99.90;;;;;;5071473;28;20201;-64
2022/09/06 06:16:38;;;;;;;5.50;3.55;;;21.60;99.90;;;;;;5071193;28;20213;-63
2022/09/06 06:19:04;;;;;;;6.80;3.70;;;21.60;99.90;;;;;;5070662;28;20236;-64
2022/09/06 06:21:33;;;;;;;5.22;3.30;;;21.60;99.90;;;;;;5071044;28;20243;-63
2022/09/06 06:24:02;;;;;;;4.47;3.42;;;21.60;99.90;;;;;;5071379;28;20205;-63
2022/09/06 06:26:30;;;;;;;3.80;3.30;;;21.60;99.90;;;;;;5071338;28;20201;-63
2022/09/06 06:29:00;;;;;;;5.82;3.47;;;21.50;99.90;;;;;;5072449;28;20282;-63
2022/09/06 06:31:29;;;;;;;4.15;3.38;;;21.50;99.90;;;;;;5075080;28;20377;-63
2022/09/06 06:33:55;;;;;;;5.70;4.00;;;21.60;99.90;;;;;;5074323;28;20232;-63
2022/09/06 06:36:24;;;;;;;4.65;3.78;;;21.60;99.90;;;;;;5074436;28;20358;-63
2022/09/06 06:38:53;;;;;;;5.18;3.55;;;21.80;99.90;;;;;;5074380;28;20724;-63
2022/09/06 06:41:22;;;;;;;6.53;3.65;;;22.10;99.90;;;;;;5074246;28;20209;-64
2022/09/06 06:43:51;;;;;;;4.63;3.45;;;22.30;99.90;;;;;;5074508;28;20196;-63
2022/09/06 06:46:19;;;;;;;5.45;2.83;;;22.50;99.90;;;;;;5074391;28;20263;-63
2022/09/06 06:48:47;;;;;;;4.80;3.20;;;22.70;99.90;;;;;;5074310;28;20734;-63
2022/09/06 06:51:16;;;;;;;4.47;3.28;;;22.90;99.90;;;;;;5074008;28;20695;-63
2022/09/06 06:53:43;;;;;;;3.55;2.72;;;23.10;99.90;;;;;;5074191;28;20320;-63
2022/09/06 06:56:15;;;;;;;6.68;3.63;;;23.40;99.90;;;;;;5074324;28;20236;-68
2022/09/06 06:58:42;;;;;;;4.38;2.92;;;23.70;99.90;;;;;;5073982;28;20554;-68
2022/09/06 07:01:09;;;;;;;3.22;2.70;;;24.00;99.90;;;;;;5073877;28;20209;-68
2022/09/06 07:03:36;;;;;;;5.38;2.83;;;24.80;99.90;;;;;;5074866;28;20292;-68
2022/09/06 07:06:04;;;;;;;4.18;3.10;;;25.80;99.90;;;;;;5074813;28;20270;-69
2022/09/06 07:08:31;;;;;;;3.72;2.40;;;27.10;99.90;;;;;;5075165;28;20205;-67
2022/09/06 07:10:58;;;;;;;2.50;2.30;;;28.70;99.90;;;;;;5074450;28;20680;-67
2022/09/06 07:13:25;;;;;;;2.85;2.45;;;30.40;99.90;;;;;;5074501;28;20617;-67
2022/09/06 07:15:51;;;;;;;5.00;2.90;;;32.00;99.90;;;;;;5074012;28;20379;-67
2022/09/06 07:18:18;;;;;;;3.83;2.40;;;32.90;96.30;;;;;;5073649;28;20209;-68
2022/09/06 07:20:45;;;;;;;3.45;2.90;;;33.30;93.20;;;;;;5073464;28;20213;-67
2022/09/06 07:23:13;;;;;;;4.25;2.08;;;33.70;92.00;;;;;;5073797;28;20263;-67
2022/09/06 07:25:39;;;;;;;4.55;2.17;;;34.20;90.00;;;;;;5073702;28;20266;-67
2022/09/06 07:28:06;;;;;;;5.38;2.55;;;34.20;87.00;;;;;;5073818;28;20212;-67
2022/09/06 07:30:35;;;;;;;3.88;3.03;;;33.50;88.80;;;;;;5073304;28;20286;-67
2022/09/06 07:33:02;;;;;;;5.22;3.00;;;32.80;90.00;;;;;;5073486;28;20232;-68
2022/09/06 07:35:28;;;;;;;2.60;2.30;;;32.40;90.40;;;;;;5073733;28;20274;-66
2022/09/06 07:37:56;;;;;;;3.80;2.40;;;32.40;90.70;;;;;;5073515;28;20208;-67
2022/09/06 07:40:25;;;;;;;2.45;1.95;;;32.80;89.20;;;;;;5072964;28;20233;-67
2022/09/06 07:42:52;;;;;;;3.42;1.90;;;33.30;87.90;;;;;;5073393;28;20308;-67
2022/09/06 07:45:19;;;;;;;6.35;4.05;;;33.60;87.00;;;;;;5073285;28;20304;-66
2022/09/06 07:47:53;;;;;;;4.13;2.63;;;33.80;85.50;;;;;;5073125;28;20220;-64
2022/09/06 07:50:20;;;;;;;5.85;4.45;;;33.50;84.00;;;;;;5073109;28;20311;-64
2022/09/06 07:52:47;;;;;;;4.22;3.35;;;33.30;83.70;;;;;;5073135;28;20754;-64
2022/09/06 07:55:14;;;;;;;5.00;3.10;;;33.10;84.50;;;;;;5073285;28;20232;-64
2022/09/06 07:57:42;;;;;;;8.07;3.65;;;33.30;83.80;;;;;;5073577;28;20205;-62
2022/09/06 08:00:10;;;;;;;5.03;2.10;;;33.90;82.20;;;;;;5073189;28;20286;-60
2022/09/06 08:02:36;;;;;;;2.58;1.73;;;34.40;78.30;;;;;;5073417;28;20201;-60
2022/09/06 08:05:03;;;;;;;5.47;2.30;;;34.40;77.80;;;;;;5073377;28;20216;-60
2022/09/06 08:07:30;;;;;;;7.72;2.05;;;34.10;78.20;;;;;;5073511;28;20205;-60
2022/09/06 08:09:57;;;;;;;3.60;1.92;;;33.40;79.00;;;;;;5072936;28;20225;-60
2022/09/06 08:12:26;;;;;;;4.53;2.50;;;32.40;81.50;;;;;;5073175;28;20216;-60
2022/09/06 08:14:54;;;;;;;4.78;2.03;;;31.60;83.50;;;;;;5072831;28;20740;-60
2022/09/06 08:17:21;;;;;;;3.92;2.42;;;30.70;86.60;;;;;;5072962;28;20205;-62
2022/09/06 08:19:48;;;;;;;5.32;2.47;;;29.70;89.60;;;;;;5072299;28;20712;-62
2022/09/06 08:22:14;;;;;;;5.75;2.83;;;29.20;91.00;;;;;;5072928;28;20219;-65
2022/09/06 08:24:41;;;;;;;4.18;2.30;;;28.70;92.30;;;;;;5072656;28;20211;-65
2022/09/06 08:27:08;;;;;;;4.97;2.83;;;28.40;92.50;;;;;;5072335;28;20209;-66
2022/09/06 08:29:34;;;;;;;6.20;2.90;;;28.20;93.00;;;;;;5072500;28;20243;-65
2022/09/06 08:32:03;;;;;;;2.92;2.15;;;28.00;93.40;;;;;;5072764;28;20212;-65
2022/09/06 08:34:30;;;;;;;3.25;2.47;;;27.90;93.40;;;;;;5072317;28;20220;-65
2022/09/06 08:36:56;;;;;;;3.65;1.95;;;27.50;94.80;;;;;;5072396;28;20212;-65
2022/09/06 08:39:23;;;;;;;5.90;2.35;;;27.40;95.40;;;;;;5072044;28;20225;-68
2022/09/06 08:41:55;;;;;;;6.60;2.65;;;27.20;95.80;;;;;;5072512;28;20254;-68
2022/09/06 08:44:24;;;;;;;3.58;2.30;;;27.10;96.30;;;;;;5072166;28;20200;-68
2022/09/06 08:46:57;;;;;;;2.80;2.20;;;27.10;96.60;;;;;;5072003;28;20262;-68
2022/09/06 08:49:27;;;;;;;7.22;2.60;;;27.20;96.40;;;;;;5071869;28;20286;-69
2022/09/06 08:52:18;;;;;;;4.63;2.60;;;27.30;96.40;;;;;;5071623;28;20216;-68
2022/09/06 08:54:54;;;;;;;3.95;2.58;;;27.30;96.40;;;;;;5072245;28;20224;-68
2022/09/06 08:57:34;;;;;;;8.00;2.55;;;27.40;96.50;;;;;;5072014;28;20294;-69
2022/09/06 09:00:06;;;;;;;4.47;2.40;;;27.50;96.60;;;;;;5071667;28;20641;-68
2022/09/06 09:02:43;;;;;;;3.92;2.47;;;27.50;96.60;;;;;;5071689;28;20208;-67
2022/09/06 09:05:22;;;;;;;6.00;2.40;;;27.50;96.50;;;;;;5072040;28;20200;-67
2022/09/06 09:07:59;;;;;;;3.60;2.33;;;27.70;96.50;;;;;;5071865;28;20240;-67
2022/09/06 09:10:29;;;;;;;3.95;2.67;;;27.90;96.70;;;;;;5071827;28;20225;-67
2022/09/06 09:12:56;;;;;;;5.32;2.58;;;27.90;96.60;;;;;;5071700;28;20233;-67
2022/09/06 09:15:23;;;;;;;3.63;2.33;;;28.00;96.40;;;;;;5071714;28;20208;-67
2022/09/06 09:17:52;;;;;;;4.70;2.15;;;28.20;96.00;;;;;;5071748;28;20212;-67
2022/09/06 09:20:21;;;;;;;4.43;2.55;;;28.30;95.60;;;;;;5071329;28;20233;-67
2022/09/06 09:22:49;;;;;;;3.90;2.30;;;28.30;95.50;;;;;;5071706;28;20208;-67
2022/09/06 09:25:21;;;;;;;4.20;2.25;;;28.50;95.60;;;;;;5071606;28;20216;-67
2022/09/06 09:27:56;;;;;;;5.15;2.67;;;28.60;95.20;;;;;;5071968;28;20216;-67
2022/09/06 09:30:23;;;;;;;5.97;2.47;;;28.90;94.80;;;;;;5071257;28;20242;-67
2022/09/06 09:32:50;;;;;;;5.40;2.33;;;29.30;94.20;;;;;;5071380;28;20219;-67
2022/09/06 09:35:31;;;;;;;4.15;2.58;;;29.70;93.70;;;;;;5071505;28;20342;-69
2022/09/06 09:38:03;;;;;;;5.93;2.17;;;30.00;92.80;;;;;;5071713;28;20189;-68
2022/09/06 09:40:34;;;;;;;5.53;2.60;;;30.30;92.20;;;;;;5071320;28;20228;-68
2022/09/06 09:43:25;;;;;;;6.72;2.42;;;30.60;91.60;;;;;;5071067;28;20445;-68
2022/09/06 09:46:11;;;;;;;7.53;2.50;;;30.70;91.50;;;;;;5056600;28;20742;-67
2022/09/06 09:48:38;;;;;;;9.10;2.75;;;30.90;91.00;;;;;;5059358;28;20209;-63
2022/09/06 09:51:24;;;;;;;6.80;2.67;;;30.90;90.80;;;;;;5049445;28;20217;-59
2022/09/06 09:53:53;;;;;;;7.05;2.45;;;31.10;90.30;;;;;;5050703;28;20228;-59
2022/09/06 09:56:30;;;;;;;6.07;2.50;;;31.20;90.10;;;;;;5050702;28;20619;-61
2022/09/06 09:58:58;;;;;;;5.55;2.50;;;31.40;90.10;;;;;;5050519;28;20229;-62
2022/09/06 10:01:28;;;;;;;8.50;2.40;;;31.60;89.20;;;;;;5050543;28;20201;-58
2022/09/06 10:04:04;;;;;;;5.40;2.50;;;31.70;88.60;;;;;;5051306;28;20367;-61
2022/09/06 10:06:32;;;;;;;5.07;2.50;;;31.80;88.20;;;;;;5054526;28;20212;-60
2022/09/06 10:09:11;;;;;;;10.30;2.78;;;31.90;87.10;;;;;;5054394;28;20221;-61
2022/09/06 10:11:41;;;;;;;7.15;2.30;;;31.90;87.50;;;;;;5053987;28;20208;-62
2022/09/06 10:14:12;;;;;;;6.65;2.50;;;32.00;87.30;;;;;;5054186;28;20225;-61
2022/09/06 10:16:44;;;;;;;6.80;2.80;;;32.00;87.20;;;;;;5053507;28;20206;-60
2022/09/06 10:19:23;;;;;;;9.50;2.72;;;31.90;87.70;;;;;;5090916;22;20243;-56
2022/09/06 10:21:56;;;;;;;7.90;2.35;;;31.90;87.70;;;;;;5104858;28;20208;-56
2022/09/06 10:24:31;;;;;;;10.07;4.63;;;31.90;87.30;;;;;;5095280;28;20208;-60
2022/09/06 10:27:01;;;;;;;5.18;2.95;;;32.10;87.10;;;;;;5095551;28;20204;-56
2022/09/06 10:29:35;;;;;;;6.13;3.30;;;32.30;86.60;;;;;;5095776;28;20252;-59
2022/09/06 10:32:18;;;;;;;7.30;2.80;;;32.60;84.90;;;;;;5096041;28;20701;-60
2022/09/06 10:34:59;;;;;;;5.38;2.50;;;32.70;84.00;;;;;;5095312;28;20231;-59
2022/09/06 10:37:53;;;;;;;6.07;2.70;;;32.60;83.60;;;;;;5094584;28;20208;-59
2022/09/06 10:40:30;;;;;;;6.05;2.70;;;32.60;84.30;;;;;;5094625;28;20239;-57
2022/09/06 10:43:00;;;;;;;7.30;3.22;;;32.70;84.40;;;;;;5095235;28;20546;-58
2022/09/06 10:45:41;;;;;;;6.85;2.83;;;32.80;83.00;;;;;;5094566;28;20215;-58
2022/09/06 10:48:12;;;;;;;3.90;1.90;;;32.80;81.80;;;;;;5095188;28;20215;-60
2022/09/06 10:50:45;;;;;;;6.85;2.47;;;32.80;81.70;;;;;;5094511;28;20226;-58
2022/09/06 10:53:25;;;;;;;7.32;2.50;;;32.90;82.30;;;;;;5094567;28;20211;-60
2022/09/06 10:56:02;;;;;;;6.50;2.25;;;32.60;83.10;;;;;;5094517;28;20650;-60
2022/09/06 10:58:34;;;;;;;8.65;2.13;;;32.50;82.60;;;;;;5094397;28;20204;-60
2022/09/06 11:01:01;;;;;;;6.75;2.60;;;32.70;81.30;;;;;;5094278;28;20596;-66
2022/09/06 11:03:31;;;;;;;9.23;2.55;;;32.80;80.60;;;;;;5094084;28;20232;-58
2022/09/06 11:06:03;;;;;;;6.72;2.40;;;33.10;79.80;;;;;;5093715;28;20208;-58
2022/09/06 11:08:40;;;;;;;4.07;2.35;;;33.30;79.00;;;;;;5095368;28;20208;-58
2022/09/06 11:11:13;;;;;;;6.75;2.70;;;33.20;79.50;;;;;;5095321;28;20581;-59
2022/09/06 11:13:40;;;;;;;6.25;2.83;;;33.10;79.50;;;;;;5095540;28;20224;-62
2022/09/06 11:16:11;;;;;;;15.43;3.80;;;33.30;79.50;;;;;;5094112;28;20207;-60
2022/09/06 11:18:43;;;;;;;6.97;2.80;;;33.50;78.10;;;;;;5095437;28;20208;-61
2022/09/06 11:21:30;;;;;;;8.07;2.58;;;33.30;78.00;;;;;;5096160;28;20209;-58
2022/09/06 11:24:10;;;;;;;9.65;2.60;;;33.20;78.00;;;;;;5095313;28;20203;-58
2022/09/06 11:26:43;;;;;;;8.13;2.67;;;33.10;78.70;;;;;;5097134;28;20249;-58
2022/09/06 11:29:17;;;;;;;9.20;2.30;;;33.00;78.40;;;;;;5095611;28;20236;-57
2022/09/06 11:31:53;;;;;;;7.25;2.70;;;32.80;78.90;;;;;;5094837;28;20207;-57
2022/09/06 11:34:26;;;;;;;8.20;2.95;;;32.50;79.60;;;;;;5095031;28;20288;-57
2022/09/06 11:36:55;;;;;;;12.15;2.60;;;32.30;79.90;;;;;;5095202;28;20206;-58
2022/09/06 11:39:29;;;;;;;9.35;2.72;;;32.20;80.80;;;;;;5095107;28;20227;-58
2022/09/06 11:41:57;;;;;;;8.13;2.70;;;32.20;80.40;;;;;;5095183;28;20239;-57
2022/09/06 11:44:52;;;;;;;5.57;2.45;;;32.10;81.80;;;;;;5094752;28;20200;-58
2022/09/06 11:47:38;;;;;;;6.90;2.70;;;32.00;81.90;;;;;;5067975;28;20274;-62
2022/09/06 11:50:41;;;;;;;5.22;2.60;;;32.10;81.80;;;;;;5093972;28;20644;-59
2022/09/06 11:53:16;;;;;;;8.73;2.90;;;32.30;81.40;;;;;;5094712;28;20211;-59
2022/09/06 11:55:46;;;;;;;7.47;2.80;;;32.50;80.80;;;;;;5094679;28;20223;-58
2022/09/06 11:58:25;;;;;;;9.45;2.75;;;32.40;80.20;;;;;;5094496;28;20208;-58
2022/09/06 12:01:29;;;;;;;8.20;2.58;;;32.20;80.30;;;;;;5094399;28;20231;-59
2022/09/06 12:04:07;;;;;;;6.45;2.45;;;31.90;81.50;;;;;;5095491;28;20207;-59
2022/09/06 12:06:36;;;;;;;6.78;2.30;;;31.60;82.10;;;;;;5096214;28;20207;-59
2022/09/06 12:09:28;;;;;;;9.85;2.47;;;31.50;82.40;;;;;;5095155;28;20636;-58
2022/09/06 12:11:57;;;;;;;8.85;2.70;;;31.40;82.50;;;;;;5093880;28;20215;-58
2022/09/06 12:14:33;;;;;;;5.57;2.70;;;31.30;82.90;;;;;;5094763;28;20254;-61
2022/09/06 12:17:30;;;;;;;7.00;2.45;;;31.20;82.80;;;;;;5094670;28;20211;-58
2022/09/06 12:20:08;;;;;;;4.68;2.40;;;31.10;82.70;;;;;;5095459;28;20239;-57
2022/09/06 12:23:02;;;;;;;7.65;2.60;;;31.10;82.90;;;;;;5094421;28;20231;-57
2022/09/06 12:25:53;;;;;;;3.97;2.35;;;31.00;82.60;;;;;;5093902;28;20678;-58
2022/09/06 12:28:27;;;;;;;7.18;2.35;;;30.90;82.50;;;;;;5094491;28;20210;-57
2022/09/06 12:30:54;;;;;;;7.45;2.60;;;30.80;83.30;;;;;;5094092;28;20255;-58
2022/09/06 12:33:25;;;;;;;5.50;2.13;;;30.60;83.70;;;;;;5094911;28;20671;-58
2022/09/06 12:35:53;;;;;;;6.53;2.45;;;30.40;84.10;;;;;;5094567;28;20224;-58
2022/09/06 12:38:24;;;;;;;7.22;2.40;;;30.20;85.00;;;;;;5094642;28;20215;-57
2022/09/06 12:40:56;;;;;;;9.20;2.50;;;30.30;85.00;;;;;;5093594;28;20622;-59
2022/09/06 12:43:25;;;;;;;13.73;3.17;;;30.40;84.00;;;;;;5094550;28;20204;-57
2022/09/06 12:45:52;;;;;;;10.05;2.70;;;30.40;84.40;;;;;;5094163;28;20203;-60
2022/09/06 12:48:27;;;;;;;6.88;2.72;;;30.40;83.80;;;;;;5093799;28;20204;-58
2022/09/06 12:51:02;;;;;;;4.82;2.50;;;30.50;83.80;;;;;;5093479;28;20224;-58
2022/09/06 12:53:30;;;;;;;4.43;2.33;;;30.50;83.40;;;;;;5093818;28;20272;-57
2022/09/06 12:56:06;;;;;;;4.35;2.25;;;30.50;83.30;;;;;;5093621;28;20225;-57
2022/09/06 12:58:34;;;;;;;7.57;2.33;;;30.50;84.50;;;;;;5094126;28;20214;-58
2022/09/06 13:01:09;;;;;;;11.73;3.42;;;30.50;82.10;;;;;;5093521;28;20327;-58
2022/09/06 13:03:39;;;;;;;8.65;2.50;;;30.40;82.50;;;;;;5093943;28;20238;-57